aviador You're here:

LIRZ Decoded Metar

PERUGIA in ITALY
Report Time2018-06-18 18:50:00
UTC Time2018-06-18 19:11:19
Flight Rules vfr VFR
Wind010° at 06 kt
W.Decomp.*RWY 01: 6.0 kt HW 0.2 kt LCW
W.Rank010° ranks 3
Current wind is below 010° avg. (7.3)
Visibility9999 m
Phenomena:N/A
Clouds:N/A
Expected CloudBase > 4,400 ft AGL from Temp-Dew spread
CeilingNone
Temp24°C (ISA +10)
Dew Point13°C (50% RH)
AAT22.7°C
QNH1016 hPa
Density Alt1,972 ft
Elevation673 ft
Report Wrong Elevation
Raw Report
LIRZ 181850Z 01006KT CAVOK 24/13 Q1016=

Extra information for LIRZ:More info

Metar Taf Metar & Taf Last 4 Metars F.Rules Stats Wind Profile Meteogram Temp Stats Airport Information Weather charts Add Link Nearby VenuesMetar ALERT Operation Metar Decoded Social comments